Terminal Aerodrome Forecast
Issued by NWS Charleston, WV

Current Version | Previous Version | Text Only | Print | Product List | Glossary Off
Versions: 1 2 3 4 5 6 7 8 9 10 11 12 13 14 15 16 17 18 19 20 21 22 23

023
FTUS41 KRLX 240520
TAFEKN
TAF
KEKN 240520Z 2406/2506 17007KT P6SM SKC
     FM240800 16004KT P6SM BKN090
     FM241600 23007KT P6SM BKN035=

USA.gov is the U.S. government's official web portal to all federal, state and local government web resources and services.